Terminal Aerodrome Forecast
Issued by NWS Cleveland, OH

Home | Current Version | Previous Version | Text Only | Print | Product List | Glossary Off
Versions: 1 2 3 4 5 6 7 8 9 10 11 12 13 14 15 16 17 18 19 20 21 22 23

000
FTUS41 KCLE 241100
TAFTOL
TAF
KTOL 241131Z 2412/2512 05006KT P6SM SCT250
     FM242300 07008KT P6SM BKN100
     FM250400 09008KT P6SM OVC040
     FM250800 11012G20KT 4SM -RA OVC025=

USA.gov is the U.S. government's official web portal to all federal, state and local government web resources and services.